Time;durP1;ratioP1;P1;durP2;ratioP2;P2;SDS_P1;SDS_P2;PMS_P1;PMS_P2;Temp;Humidity;BMP_temperature;BMP_pressure;BME280_temperature;BME280_humidity;BME280_pressure;Samples;Min_cycle;Max_cycle;Signal;HPM_P1;HPM_P2
2024/01/22 00:02:12;;;;;;;7.90;3.22;;;;;;;;;;5053665;28;20087;-69
2024/01/22 00:04:40;;;;;;;3.90;2.63;;;;;;;;;;5045828;28;20493;-69
2024/01/22 00:07:06;;;;;;;3.40;2.60;;;;;;;;;;5044845;28;20049;-69
2024/01/22 00:09:33;;;;;;;8.43;3.72;;;;;;;;;;5047137;28;20049;-69
2024/01/22 00:11:59;;;;;;;5.32;2.63;;;;;;;;;;5049761;28;20485;-69
2024/01/22 00:14:25;;;;;;;7.40;2.50;;;;;;;;;;5052797;28;20139;-71
2024/01/22 00:16:52;;;;;;;9.30;3.42;;;;;;;;;;5044718;28;20519;-70
2024/01/22 00:19:18;;;;;;;8.20;2.70;;;;;;;;;;5052848;28;20047;-69
2024/01/22 00:21:46;;;;;;;7.18;3.03;;;;;;;;;;5049373;28;20253;-69
2024/01/22 00:24:12;;;;;;;3.08;2.13;;;;;;;;;;5043426;28;20042;-69
2024/01/22 00:26:39;;;;;;;5.22;3.10;;;;;;;;;;5047706;28;20052;-67
2024/01/22 00:29:06;;;;;;;7.97;3.20;;;;;;;;;;5051556;28;20393;-67
2024/01/22 00:31:32;;;;;;;10.40;4.05;;;;;;;;;;5050512;28;20437;-67
2024/01/22 00:33:58;;;;;;;4.70;2.65;;;;;;;;;;5049088;28;20059;-67
2024/01/22 00:36:25;;;;;;;4.80;2.50;;;;;;;;;;5049092;28;20059;-67
2024/01/22 00:38:53;;;;;;;3.85;2.40;;;;;;;;;;5048006;28;20136;-67
2024/01/22 00:41:19;;;;;;;5.32;2.38;;;;;;;;;;5045117;28;20408;-68
2024/01/22 00:43:45;;;;;;;4.00;2.40;;;;;;;;;;5044464;28;20045;-68
2024/01/22 00:46:12;;;;;;;3.55;2.53;;;;;;;;;;5051976;28;20063;-67
2024/01/22 00:48:38;;;;;;;5.10;1.98;;;;;;;;;;5039743;28;20059;-67
2024/01/22 00:51:05;;;;;;;6.03;2.33;;;;;;;;;;5052109;28;20082;-67
2024/01/22 00:53:32;;;;;;;3.30;1.83;;;;;;;;;;5051407;28;20132;-67
2024/01/22 00:56:00;;;;;;;5.05;1.98;;;;;;;;;;5048763;28;20084;-68
2024/01/22 00:58:26;;;;;;;3.65;2.15;;;;;;;;;;5045377;28;20041;-67
2024/01/22 01:00:53;;;;;;;4.18;2.03;;;;;;;;;;5051870;28;20055;-67
2024/01/22 01:03:19;;;;;;;3.25;1.90;;;;;;;;;;5051603;28;20049;-67
2024/01/22 01:05:46;;;;;;;3.60;1.88;;;;;;;;;;5048355;28;20054;-67
2024/01/22 01:08:12;;;;;;;5.00;2.05;;;;;;;;;;5049274;28;20128;-67
2024/01/22 01:10:38;;;;;;;4.40;1.75;;;;;;;;;;5039448;28;20486;-68
2024/01/22 01:13:06;;;;;;;3.58;1.92;;;;;;;;;;5050999;28;20599;-67
2024/01/22 01:15:32;;;;;;;3.67;1.73;;;;;;;;;;5043345;28;20045;-67
2024/01/22 01:17:59;;;;;;;4.45;2.00;;;;;;;;;;5040899;28;20055;-68
2024/01/22 01:20:25;;;;;;;2.67;1.63;;;;;;;;;;5040521;28;20052;-68
2024/01/22 01:22:52;;;;;;;5.20;2.25;;;;;;;;;;5047667;28;20053;-67
2024/01/22 01:25:18;;;;;;;4.45;1.77;;;;;;;;;;5050735;28;20051;-68
2024/01/22 01:27:44;;;;;;;5.68;1.80;;;;;;;;;;5040565;28;20508;-68
2024/01/22 01:30:12;;;;;;;4.28;2.15;;;;;;;;;;5037621;28;20056;-67
2024/01/22 01:32:39;;;;;;;2.22;1.50;;;;;;;;;;5050161;28;20539;-67
2024/01/22 01:35:06;;;;;;;3.00;1.90;;;;;;;;;;5045820;28;20051;-67
2024/01/22 01:37:32;;;;;;;4.25;2.10;;;;;;;;;;5051219;28;20051;-67
2024/01/22 01:39:59;;;;;;;5.03;1.85;;;;;;;;;;5051276;28;20053;-68
2024/01/22 01:42:26;;;;;;;3.55;1.88;;;;;;;;;;5044003;28;20048;-67
2024/01/22 01:44:53;;;;;;;4.05;1.92;;;;;;;;;;5050816;28;20051;-67
2024/01/22 01:47:20;;;;;;;3.53;2.35;;;;;;;;;;5051127;28;20416;-67
2024/01/22 01:49:47;;;;;;;2.80;1.60;;;;;;;;;;5050785;28;20045;-67
2024/01/22 01:52:14;;;;;;;4.63;1.77;;;;;;;;;;5051665;28;20067;-67
2024/01/22 01:54:41;;;;;;;3.35;1.40;;;;;;;;;;5051498;28;20049;-68
2024/01/22 01:57:08;;;;;;;4.32;1.70;;;;;;;;;;5047450;28;20419;-67
2024/01/22 01:59:35;;;;;;;3.55;1.83;;;;;;;;;;5034686;28;20045;-67
2024/01/22 02:02:02;;;;;;;2.67;1.67;;;;;;;;;;5044713;28;20045;-67
2024/01/22 02:04:30;;;;;;;2.72;1.70;;;;;;;;;;5047595;28;20060;-67
2024/01/22 02:06:56;;;;;;;3.88;1.50;;;;;;;;;;5046425;28;20067;-67
2024/01/22 02:09:23;;;;;;;4.43;1.65;;;;;;;;;;5049807;28;20051;-68
2024/01/22 02:11:49;;;;;;;3.33;1.45;;;;;;;;;;5050193;28;20052;-67
2024/01/22 02:14:16;;;;;;;3.55;1.85;;;;;;;;;;5050550;28;20425;-67
2024/01/22 02:16:43;;;;;;;2.50;1.38;;;;;;;;;;5051113;28;20051;-68
2024/01/22 02:19:09;;;;;;;2.03;1.20;;;;;;;;;;5049152;28;20045;-67
2024/01/22 02:21:37;;;;;;;2.67;1.50;;;;;;;;;;5048799;28;20051;-67
2024/01/22 02:24:05;;;;;;;3.58;1.35;;;;;;;;;;5050778;28;20045;-67
2024/01/22 02:26:31;;;;;;;2.50;1.35;;;;;;;;;;5050398;28;20582;-67
2024/01/22 02:28:57;;;;;;;3.13;1.63;;;;;;;;;;5049245;28;20049;-67
2024/01/22 02:31:24;;;;;;;3.17;1.58;;;;;;;;;;5046017;28;20045;-67
2024/01/22 02:33:50;;;;;;;2.67;1.55;;;;;;;;;;5050656;28;20051;-67
2024/01/22 02:36:17;;;;;;;3.25;1.58;;;;;;;;;;5050863;28;20493;-67
2024/01/22 02:38:43;;;;;;;3.15;1.45;;;;;;;;;;5049262;28;20051;-67
2024/01/22 02:41:11;;;;;;;3.00;1.60;;;;;;;;;;5042290;28;20059;-68
2024/01/22 02:43:38;;;;;;;2.25;1.48;;;;;;;;;;5047440;28;20046;-67
2024/01/22 02:46:04;;;;;;;3.17;1.55;;;;;;;;;;5050789;28;20140;-67
2024/01/22 02:48:31;;;;;;;1.60;1.30;;;;;;;;;;5049884;28;20040;-67
2024/01/22 02:50:57;;;;;;;2.00;1.42;;;;;;;;;;5046099;28;20045;-68
2024/01/22 02:53:24;;;;;;;1.98;1.40;;;;;;;;;;5050246;28;20049;-68
2024/01/22 02:55:50;;;;;;;2.38;1.60;;;;;;;;;;5050100;28;20045;-68
2024/01/22 02:58:18;;;;;;;1.70;1.25;;;;;;;;;;5046971;28;20051;-68
2024/01/22 03:00:44;;;;;;;4.05;1.80;;;;;;;;;;5049955;28;20041;-67
2024/01/22 03:03:10;;;;;;;2.47;1.70;;;;;;;;;;5049680;28;20049;-68
2024/01/22 03:05:37;;;;;;;4.20;1.83;;;;;;;;;;5050298;28;20049;-67
2024/01/22 03:08:03;;;;;;;1.75;1.30;;;;;;;;;;5049432;28;20059;-67
2024/01/22 03:10:30;;;;;;;1.92;1.70;;;;;;;;;;5046405;28;20523;-67
2024/01/22 03:12:56;;;;;;;3.00;1.30;;;;;;;;;;5038640;28;20052;-67
2024/01/22 03:15:24;;;;;;;1.63;1.30;;;;;;;;;;5050430;28;20045;-67
2024/01/22 03:17:50;;;;;;;1.80;1.20;;;;;;;;;;5049673;28;20128;-67
2024/01/22 03:20:17;;;;;;;2.53;1.40;;;;;;;;;;5046389;28;20077;-67
2024/01/22 03:22:43;;;;;;;4.05;1.83;;;;;;;;;;5045929;28;20130;-67
2024/01/22 03:25:14;;;;;;;2.20;1.42;;;;;;;;;;5050491;28;20073;-68
2024/01/22 03:27:40;;;;;;;2.10;1.27;;;;;;;;;;5049551;28;20080;-68
2024/01/22 03:30:07;;;;;;;2.25;1.40;;;;;;;;;;5053617;28;20423;-68
2024/01/22 03:32:35;;;;;;;2.50;1.50;;;;;;;;;;5050178;28;20053;-68
2024/01/22 03:35:01;;;;;;;2.58;1.23;;;;;;;;;;5038993;28;20042;-67
2024/01/22 03:37:27;;;;;;;1.83;1.38;;;;;;;;;;5039459;28;20045;-68
2024/01/22 03:39:54;;;;;;;2.70;1.08;;;;;;;;;;5053526;28;20044;-67
2024/01/22 03:42:20;;;;;;;2.95;1.27;;;;;;;;;;5054111;28;20055;-68
2024/01/22 03:44:46;;;;;;;2.42;1.25;;;;;;;;;;5051749;28;20152;-67
2024/01/22 03:47:13;;;;;;;4.90;1.45;;;;;;;;;;5048046;28;20513;-67
2024/01/22 03:49:41;;;;;;;1.83;1.20;;;;;;;;;;5052933;28;20049;-68
2024/01/22 03:52:07;;;;;;;1.85;1.30;;;;;;;;;;5053813;28;20480;-68
2024/01/22 03:54:33;;;;;;;4.75;1.48;;;;;;;;;;5053855;28;20049;-67
2024/01/22 03:57:06;;;;;;;4.82;1.60;;;;;;;;;;5053423;28;20507;-67
2024/01/22 03:59:32;;;;;;;3.90;1.40;;;;;;;;;;5041548;28;20442;-67
2024/01/22 04:01:58;;;;;;;1.20;1.10;;;;;;;;;;5053059;28;20320;-68
2024/01/22 04:04:25;;;;;;;2.95;1.48;;;;;;;;;;5052871;28;20055;-67
2024/01/22 04:06:53;;;;;;;1.88;1.60;;;;;;;;;;5052869;28;20486;-68
2024/01/22 04:09:19;;;;;;;2.13;1.17;;;;;;;;;;5052160;28;20041;-67
2024/01/22 04:11:45;;;;;;;3.28;1.50;;;;;;;;;;5053472;28;20048;-68
2024/01/22 04:14:12;;;;;;;1.45;1.30;;;;;;;;;;5052806;28;20458;-67
2024/01/22 04:16:38;;;;;;;3.55;1.38;;;;;;;;;;5044186;28;20045;-68
2024/01/22 04:19:04;;;;;;;2.70;1.33;;;;;;;;;;5052091;28;20052;-68
2024/01/22 04:21:31;;;;;;;3.78;1.40;;;;;;;;;;5052606;28;20059;-67
2024/01/22 04:23:59;;;;;;;5.03;1.63;;;;;;;;;;5050190;28;20049;-68
2024/01/22 04:26:25;;;;;;;2.75;1.30;;;;;;;;;;5052719;28;20047;-68
2024/01/22 04:28:51;;;;;;;3.75;1.67;;;;;;;;;;5051178;28;20136;-68
2024/01/22 04:31:18;;;;;;;2.80;1.52;;;;;;;;;;5052815;28;20052;-68
2024/01/22 04:33:45;;;;;;;2.55;1.30;;;;;;;;;;5053125;28;20049;-67
2024/01/22 04:36:11;;;;;;;2.92;1.30;;;;;;;;;;5052955;28;20055;-68
2024/01/22 04:38:37;;;;;;;4.65;1.65;;;;;;;;;;5051051;28;20420;-68
2024/01/22 04:41:05;;;;;;;3.47;1.40;;;;;;;;;;5052491;28;20052;-68
2024/01/22 04:43:32;;;;;;;4.68;1.48;;;;;;;;;;5049581;28;20493;-67
2024/01/22 04:45:58;;;;;;;3.72;1.48;;;;;;;;;;5052739;28;20136;-68
2024/01/22 04:48:24;;;;;;;3.25;1.30;;;;;;;;;;5052384;28;20420;-68
2024/01/22 04:50:50;;;;;;;2.15;1.38;;;;;;;;;;5052142;28;20133;-68
2024/01/22 04:53:17;;;;;;;2.80;1.63;;;;;;;;;;5052739;28;20049;-68
2024/01/22 04:55:43;;;;;;;1.70;1.17;;;;;;;;;;5052598;28;20044;-68
2024/01/22 04:58:11;;;;;;;3.70;1.42;;;;;;;;;;5047734;28;20075;-67
2024/01/22 05:00:37;;;;;;;3.35;1.20;;;;;;;;;;5048438;28;20501;-68
2024/01/22 05:03:05;;;;;;;3.08;1.38;;;;;;;;;;5052900;28;20533;-68
2024/01/22 05:05:31;;;;;;;3.22;1.52;;;;;;;;;;5051638;28;20053;-68
2024/01/22 05:07:58;;;;;;;3.15;1.65;;;;;;;;;;5051931;28;20056;-68
2024/01/22 05:10:24;;;;;;;2.90;1.83;;;;;;;;;;5050974;28;20056;-68
2024/01/22 05:12:51;;;;;;;2.45;1.40;;;;;;;;;;5052091;28;20413;-68
2024/01/22 05:15:18;;;;;;;2.38;1.23;;;;;;;;;;5051479;28;20068;-68
2024/01/22 05:17:45;;;;;;;2.55;1.27;;;;;;;;;;5051294;28;20056;-68
2024/01/22 05:20:11;;;;;;;1.65;1.17;;;;;;;;;;5046765;28;20462;-68
2024/01/22 05:22:38;;;;;;;2.72;1.48;;;;;;;;;;5050010;28;20124;-68
2024/01/22 05:25:04;;;;;;;3.35;1.73;;;;;;;;;;5048209;28;20489;-68
2024/01/22 05:27:31;;;;;;;2.30;1.40;;;;;;;;;;5050655;28;20124;-68
2024/01/22 05:29:57;;;;;;;3.03;1.38;;;;;;;;;;5044025;28;20079;-68
2024/01/22 05:32:25;;;;;;;1.98;1.48;;;;;;;;;;5043716;28;20060;-68
2024/01/22 05:34:52;;;;;;;1.98;1.20;;;;;;;;;;5049067;28;20041;-68
2024/01/22 05:37:18;;;;;;;4.30;1.80;;;;;;;;;;5046603;28;20045;-68
2024/01/22 05:39:44;;;;;;;2.03;1.40;;;;;;;;;;5051277;28;20511;-68
2024/01/22 05:42:11;;;;;;;2.30;1.25;;;;;;;;;;5051620;28;20047;-68
2024/01/22 05:44:37;;;;;;;2.03;1.20;;;;;;;;;;5044057;28;20047;-68
2024/01/22 05:47:04;;;;;;;2.83;1.40;;;;;;;;;;5051236;28;20059;-68
2024/01/22 05:49:31;;;;;;;3.75;1.67;;;;;;;;;;5050912;28;20053;-68
2024/01/22 05:51:58;;;;;;;2.38;1.73;;;;;;;;;;5047462;28;20045;-68
2024/01/22 05:54:24;;;;;;;2.97;1.63;;;;;;;;;;5051475;28;20497;-68
2024/01/22 05:56:51;;;;;;;4.38;2.10;;;;;;;;;;5042973;28;20040;-68
2024/01/22 05:59:18;;;;;;;4.53;1.50;;;;;;;;;;5047466;28;20041;-68
2024/01/22 06:01:44;;;;;;;3.40;1.58;;;;;;;;;;5043887;28;20041;-68
2024/01/22 06:04:11;;;;;;;6.78;1.85;;;;;;;;;;5051334;28;20045;-68
2024/01/22 06:06:38;;;;;;;3.33;1.58;;;;;;;;;;5043819;28;20048;-68
2024/01/22 06:09:06;;;;;;;1.77;1.40;;;;;;;;;;5050025;28;20048;-68
2024/01/22 06:11:32;;;;;;;3.00;1.45;;;;;;;;;;5047720;28;20050;-68
2024/01/22 06:13:58;;;;;;;3.28;1.35;;;;;;;;;;5051282;28;20519;-68
2024/01/22 06:16:25;;;;;;;2.92;1.77;;;;;;;;;;5045176;28;20075;-68
2024/01/22 06:18:51;;;;;;;4.28;1.20;;;;;;;;;;5048856;28;20047;-68
2024/01/22 06:21:18;;;;;;;1.83;1.38;;;;;;;;;;5051031;28;20076;-68
2024/01/22 06:23:46;;;;;;;3.28;1.80;;;;;;;;;;5050601;28;20045;-68
2024/01/22 06:26:13;;;;;;;3.38;1.90;;;;;;;;;;5043695;28;20044;-68
2024/01/22 06:28:39;;;;;;;4.18;1.75;;;;;;;;;;5047127;28;20045;-68
2024/01/22 06:31:06;;;;;;;4.60;1.92;;;;;;;;;;5050665;28;20132;-68
2024/01/22 06:33:32;;;;;;;4.63;1.95;;;;;;;;;;5050870;28;20394;-68
2024/01/22 06:35:59;;;;;;;3.47;2.00;;;;;;;;;;5050732;28;20052;-68
2024/01/22 06:38:26;;;;;;;2.50;1.60;;;;;;;;;;5042567;28;20048;-67
2024/01/22 06:40:54;;;;;;;8.50;1.73;;;;;;;;;;5049850;28;20052;-68
2024/01/22 06:43:21;;;;;;;2.85;1.83;;;;;;;;;;5050202;28;20072;-68
2024/01/22 06:45:47;;;;;;;4.10;2.15;;;;;;;;;;5050541;28;20053;-67
2024/01/22 06:48:14;;;;;;;3.28;1.90;;;;;;;;;;5049574;28;20487;-68
2024/01/22 06:50:40;;;;;;;3.20;1.80;;;;;;;;;;5049809;28;20365;-68
2024/01/22 06:53:06;;;;;;;3.13;1.80;;;;;;;;;;5037949;28;20468;-68
2024/01/22 06:55:33;;;;;;;3.10;1.92;;;;;;;;;;5047949;28;20047;-68
2024/01/22 06:58:01;;;;;;;4.80;1.65;;;;;;;;;;5046027;28;20048;-68
2024/01/22 07:00:27;;;;;;;4.30;1.95;;;;;;;;;;5049518;28;20045;-68
2024/01/22 07:02:53;;;;;;;2.72;1.80;;;;;;;;;;5050426;28;20063;-68
2024/01/22 07:05:20;;;;;;;2.90;1.73;;;;;;;;;;5050424;28;20052;-68
2024/01/22 07:07:46;;;;;;;5.45;2.10;;;;;;;;;;5049529;28;20059;-68
2024/01/22 07:10:13;;;;;;;3.65;1.60;;;;;;;;;;5049727;28;20052;-68
2024/01/22 07:12:41;;;;;;;3.38;1.67;;;;;;;;;;5049672;28;20052;-68
2024/01/22 07:15:12;;;;;;;1.77;1.50;;;;;;;;;;5043045;28;20053;-68
2024/01/22 07:17:39;;;;;;;2.53;1.80;;;;;;;;;;5046149;28;20050;-68
2024/01/22 07:20:06;;;;;;;4.25;1.67;;;;;;;;;;5045010;28;20056;-67
2024/01/22 07:22:32;;;;;;;2.60;1.92;;;;;;;;;;5047649;28;20045;-67
2024/01/22 07:24:58;;;;;;;1.98;1.55;;;;;;;;;;5042892;28;20049;-67
2024/01/22 07:27:25;;;;;;;3.58;1.70;;;;;;;;;;5049302;28;20053;-67
2024/01/22 07:29:51;;;;;;;5.43;2.17;;;;;;;;;;5043231;28;20045;-68
2024/01/22 07:32:19;;;;;;;1.85;1.60;;;;;;;;;;5043151;28;20053;-68
2024/01/22 07:34:45;;;;;;;2.65;1.60;;;;;;;;;;5048211;28;20049;-67
2024/01/22 07:37:11;;;;;;;2.70;1.75;;;;;;;;;;5044202;28;20046;-67
2024/01/22 07:39:38;;;;;;;3.58;1.90;;;;;;;;;;5038187;28;20133;-67
2024/01/22 07:42:04;;;;;;;2.72;1.70;;;;;;;;;;5043606;28;20123;-68
2024/01/22 07:44:31;;;;;;;1.73;1.58;;;;;;;;;;5041870;28;20045;-68
2024/01/22 07:46:58;;;;;;;4.65;1.85;;;;;;;;;;5049459;28;20128;-68
2024/01/22 07:49:26;;;;;;;1.90;1.60;;;;;;;;;;5049042;28;20056;-68
2024/01/22 07:51:52;;;;;;;2.58;1.70;;;;;;;;;;5050134;28;20045;-68
2024/01/22 07:54:19;;;;;;;2.85;2.00;;;;;;;;;;5050067;28;20476;-68
2024/01/22 07:56:45;;;;;;;1.75;1.45;;;;;;;;;;5048196;28;20045;-68
2024/01/22 07:59:11;;;;;;;3.97;1.60;;;;;;;;;;5042256;28;20045;-68
2024/01/22 08:01:38;;;;;;;3.83;1.88;;;;;;;;;;5041474;28;20137;-69
2024/01/22 08:04:05;;;;;;;3.13;1.95;;;;;;;;;;5043194;28;20063;-68
2024/01/22 08:06:33;;;;;;;1.88;1.52;;;;;;;;;;5049290;28;20049;-68
2024/01/22 08:09:00;;;;;;;2.95;1.63;;;;;;;;;;5044511;28;20537;-68
2024/01/22 08:11:26;;;;;;;3.03;1.92;;;;;;;;;;5039334;28;20498;-69
2024/01/22 08:13:53;;;;;;;4.18;1.90;;;;;;;;;;5032520;28;20053;-67
2024/01/22 08:16:19;;;;;;;1.88;1.60;;;;;;;;;;5051589;28;20056;-67
2024/01/22 08:18:47;;;;;;;2.90;1.75;;;;;;;;;;5050321;28;20055;-67
2024/01/22 08:21:13;;;;;;;3.08;1.80;;;;;;;;;;5052916;28;20051;-67
2024/01/22 08:23:41;;;;;;;1.83;1.52;;;;;;;;;;5043653;28;20053;-67
2024/01/22 08:26:07;;;;;;;2.22;1.90;;;;;;;;;;5052408;28;20045;-67
2024/01/22 08:28:34;;;;;;;5.20;1.88;;;;;;;;;;5051524;28;20049;-67
2024/01/22 08:31:00;;;;;;;3.25;1.65;;;;;;;;;;5044480;28;20041;-67
2024/01/22 08:33:27;;;;;;;1.50;1.40;;;;;;;;;;5051458;28;20056;-67
2024/01/22 08:35:53;;;;;;;2.13;1.45;;;;;;;;;;5044136;28;20562;-67
2024/01/22 08:38:20;;;;;;;2.35;1.58;;;;;;;;;;5050958;28;20049;-68
2024/01/22 08:40:48;;;;;;;2.10;1.52;;;;;;;;;;5046569;28;20040;-68
2024/01/22 08:43:15;;;;;;;2.83;1.90;;;;;;;;;;5043572;28;20045;-68
2024/01/22 08:45:41;;;;;;;1.40;1.20;;;;;;;;;;5034057;28;20143;-68
2024/01/22 08:48:08;;;;;;;2.33;1.55;;;;;;;;;;5043762;28;20067;-68
2024/01/22 08:50:34;;;;;;;1.40;1.25;;;;;;;;;;5047407;28;20444;-68
2024/01/22 08:53:00;;;;;;;2.78;1.67;;;;;;;;;;5042337;28;20052;-68
2024/01/22 08:55:27;;;;;;;1.60;1.33;;;;;;;;;;5050960;28;20201;-68
2024/01/22 08:57:55;;;;;;;3.65;1.52;;;;;;;;;;5040889;28;20055;-68
2024/01/22 09:00:21;;;;;;;3.10;1.55;;;;;;;;;;5046730;28;20049;-68
2024/01/22 09:02:49;;;;;;;2.42;1.70;;;;;;;;;;5048886;28;20671;-68
2024/01/22 09:05:15;;;;;;;2.97;1.92;;;;;;;;;;5044293;28;20415;-68
2024/01/22 09:07:42;;;;;;;2.38;2.00;;;;;;;;;;5033822;28;20119;-68
2024/01/22 09:10:08;;;;;;;1.65;1.40;;;;;;;;;;5042966;28;20048;-68
2024/01/22 09:12:35;;;;;;;2.78;1.85;;;;;;;;;;5050459;28;20053;-68
2024/01/22 09:15:04;;;;;;;2.10;1.70;;;;;;;;;;5047401;28;20053;-68
2024/01/22 09:17:30;;;;;;;3.47;2.50;;;;;;;;;;5040029;28;20681;-68
2024/01/22 09:19:57;;;;;;;2.13;1.67;;;;;;;;;;5050343;28;20132;-68
2024/01/22 09:22:23;;;;;;;2.83;1.83;;;;;;;;;;5048149;28;20556;-68
2024/01/22 09:24:50;;;;;;;2.20;1.70;;;;;;;;;;5039478;28;20060;-68
2024/01/22 09:27:16;;;;;;;3.05;1.67;;;;;;;;;;5050637;28;20048;-68
2024/01/22 09:29:43;;;;;;;2.67;1.60;;;;;;;;;;5043075;28;20064;-68
2024/01/22 09:32:11;;;;;;;2.90;2.45;;;;;;;;;;5045634;28;20053;-69
2024/01/22 09:34:38;;;;;;;3.22;2.10;;;;;;;;;;5043627;28;20045;-68
2024/01/22 09:37:04;;;;;;;3.85;1.63;;;;;;;;;;5043458;28;20045;-68
2024/01/22 09:39:31;;;;;;;2.65;1.90;;;;;;;;;;5049929;28;20049;-68
2024/01/22 09:41:57;;;;;;;4.68;2.58;;;;;;;;;;5039902;28;20053;-68
2024/01/22 09:44:24;;;;;;;3.70;2.00;;;;;;;;;;5048874;28;20131;-68
2024/01/22 09:46:51;;;;;;;2.95;2.00;;;;;;;;;;5038833;28;20055;-68
2024/01/22 09:49:19;;;;;;;2.72;1.80;;;;;;;;;;5040282;28;20057;-68
2024/01/22 09:51:45;;;;;;;3.53;2.10;;;;;;;;;;5040896;28;20064;-68
2024/01/22 09:54:12;;;;;;;2.25;1.73;;;;;;;;;;5047013;28;20390;-68
2024/01/22 09:56:39;;;;;;;3.72;1.83;;;;;;;;;;5032056;28;20124;-68
2024/01/22 09:59:11;;;;;;;4.47;2.00;;;;;;;;;;5039370;28;20041;-68
2024/01/22 10:01:37;;;;;;;3.67;2.55;;;;;;;;;;5044047;28;20044;-68
2024/01/22 10:04:05;;;;;;;2.85;2.42;;;;;;;;;;5044192;28;20419;-68
2024/01/22 10:06:36;;;;;;;4.43;2.22;;;;;;;;;;5049602;28;20052;-68
2024/01/22 10:09:02;;;;;;;3.60;2.30;;;;;;;;;;5039731;28;20834;-67
2024/01/22 10:11:28;;;;;;;3.30;2.25;;;;;;;;;;5042470;28;20131;-68
2024/01/22 10:13:56;;;;;;;3.15;1.90;;;;;;;;;;5033526;28;20040;-69
2024/01/22 10:16:24;;;;;;;2.38;1.95;;;;;;;;;;5051185;28;20045;-68
2024/01/22 10:18:58;;;;;;;3.53;2.30;;;;;;;;;;5042599;28;20049;-69
2024/01/22 10:21:24;;;;;;;3.05;1.75;;;;;;;;;;5050249;28;20412;-68
2024/01/22 10:23:59;;;;;;;2.33;2.10;;;;;;;;;;5051482;28;20048;-69
2024/01/22 10:26:25;;;;;;;2.33;1.60;;;;;;;;;;5050130;28;20064;-67
2024/01/22 10:28:52;;;;;;;2.47;1.85;;;;;;;;;;5050901;28;20059;-68
2024/01/22 10:31:19;;;;;;;2.00;1.63;;;;;;;;;;5051132;28;20053;-68
2024/01/22 10:33:45;;;;;;;2.50;2.22;;;;;;;;;;5051641;28;20103;-67
2024/01/22 10:36:16;;;;;;;4.22;1.98;;;;;;;;;;5050214;28;20052;-68
2024/01/22 10:38:43;;;;;;;2.58;2.33;;;;;;;;;;5047101;28;20041;-68
2024/01/22 10:41:17;;;;;;;3.35;2.03;;;;;;;;;;5050966;28;20561;-66
2024/01/22 10:43:44;;;;;;;4.82;2.10;;;;;;;;;;5050969;28;20041;-68
2024/01/22 10:46:11;;;;;;;4.50;2.50;;;;;;;;;;5044993;28;20053;-68
2024/01/22 10:48:38;;;;;;;3.15;2.50;;;;;;;;;;5042669;28;20053;-67
2024/01/22 10:51:04;;;;;;;2.22;1.75;;;;;;;;;;5050759;28;20501;-68
2024/01/22 10:53:30;;;;;;;3.60;2.30;;;;;;;;;;5051101;28;20059;-69
2024/01/22 10:55:59;;;;;;;3.53;2.00;;;;;;;;;;5051002;28;20048;-69
2024/01/22 10:58:28;;;;;;;4.35;1.90;;;;;;;;;;5049634;28;20501;-70
2024/01/22 11:00:57;;;;;;;3.28;2.20;;;;;;;;;;5050898;28;20417;-68
2024/01/22 11:03:26;;;;;;;3.83;2.63;;;;;;;;;;5051244;28;20056;-69
2024/01/22 11:05:57;;;;;;;5.72;2.60;;;;;;;;;;5051177;28;20051;-69
2024/01/22 11:08:24;;;;;;;2.53;2.13;;;;;;;;;;5049995;28;20055;-68
2024/01/22 11:10:51;;;;;;;2.38;1.70;;;;;;;;;;5041363;28;20049;-68
2024/01/22 11:13:17;;;;;;;3.97;2.45;;;;;;;;;;5041445;28;20132;-70
2024/01/22 11:15:45;;;;;;;3.80;1.80;;;;;;;;;;5043724;28;20041;-70
2024/01/22 11:18:12;;;;;;;2.25;1.88;;;;;;;;;;5047825;28;20140;-70
2024/01/22 11:20:38;;;;;;;3.28;1.95;;;;;;;;;;5043483;28;20135;-70
2024/01/22 11:23:08;;;;;;;2.20;1.65;;;;;;;;;;5040995;28;20053;-69
2024/01/22 11:25:35;;;;;;;3.40;1.90;;;;;;;;;;5041594;28;20045;-70
2024/01/22 11:28:02;;;;;;;3.60;1.95;;;;;;;;;;5039470;28;20489;-70
2024/01/22 11:30:29;;;;;;;2.28;1.80;;;;;;;;;;5041053;28;20075;-72
2024/01/22 11:32:56;;;;;;;2.33;1.65;;;;;;;;;;5040049;28;20144;-69
2024/01/22 11:35:33;;;;;;;2.13;1.58;;;;;;;;;;5047493;28;20048;-69
2024/01/22 11:37:59;;;;;;;3.80;2.25;;;;;;;;;;5038439;28;20051;-69
2024/01/22 11:40:40;;;;;;;2.63;1.80;;;;;;;;;;5043618;28;20053;-68
2024/01/22 11:43:07;;;;;;;2.03;1.55;;;;;;;;;;5038643;28;20053;-69
2024/01/22 11:45:33;;;;;;;1.98;1.60;;;;;;;;;;5040820;28;20404;-69
2024/01/22 11:48:01;;;;;;;1.65;1.25;;;;;;;;;;5038293;28;20061;-69
2024/01/22 11:50:27;;;;;;;1.83;1.25;;;;;;;;;;5043264;28;20056;-68
2024/01/22 11:52:59;;;;;;;1.92;1.30;;;;;;;;;;5041715;28;20472;-69
2024/01/22 11:55:26;;;;;;;2.07;1.30;;;;;;;;;;5045812;28;20495;-69
2024/01/22 11:57:52;;;;;;;1.38;1.10;;;;;;;;;;5051505;28;20076;-68
2024/01/22 12:00:21;;;;;;;1.40;1.30;;;;;;;;;;5045000;28;20132;-69
2024/01/22 12:02:49;;;;;;;1.58;0.90;;;;;;;;;;5050631;28;20438;-68
2024/01/22 12:05:18;;;;;;;1.58;1.00;;;;;;;;;;5052415;28;20056;-69
2024/01/22 12:07:45;;;;;;;1.20;0.90;;;;;;;;;;5043895;28;20045;-68
2024/01/22 12:10:20;;;;;;;2.33;1.10;;;;;;;;;;5044327;28;20521;-69
2024/01/22 12:12:52;;;;;;;1.60;0.80;;;;;;;;;;5042185;28;20054;-69
2024/01/22 12:15:20;;;;;;;0.93;0.93;;;;;;;;;;5044925;28;20052;-69
2024/01/22 12:17:46;;;;;;;1.10;1.00;;;;;;;;;;5043767;28;20065;-69
2024/01/22 12:20:13;;;;;;;1.90;1.15;;;;;;;;;;5048167;28;20049;-69
2024/01/22 12:22:40;;;;;;;2.20;1.50;;;;;;;;;;5041288;28;20432;-69
2024/01/22 12:25:08;;;;;;;1.70;1.52;;;;;;;;;;5050577;28;20049;-69
2024/01/22 12:27:35;;;;;;;2.72;1.10;;;;;;;;;;5050887;28;20568;-68
2024/01/22 12:30:03;;;;;;;5.03;2.30;;;;;;;;;;5047672;28;20440;-69
2024/01/22 12:32:29;;;;;;;2.85;0.95;;;;;;;;;;5050367;28;20183;-69
2024/01/22 12:34:56;;;;;;;1.55;0.93;;;;;;;;;;5039688;28;20075;-69
2024/01/22 12:37:23;;;;;;;2.72;1.17;;;;;;;;;;5047268;28;20071;-69
2024/01/22 12:40:04;;;;;;;3.97;1.25;;;;;;;;;;5046796;28;20061;-69
2024/01/22 12:42:30;;;;;;;2.47;2.00;;;;;;;;;;5041548;28;20493;-69
2024/01/22 12:44:58;;;;;;;3.08;1.75;;;;;;;;;;5048936;28;20049;-69
2024/01/22 12:47:25;;;;;;;3.38;2.17;;;;;;;;;;5040449;28;20053;-69
2024/01/22 12:49:52;;;;;;;3.15;1.95;;;;;;;;;;5037930;28;20110;-69
2024/01/22 12:52:18;;;;;;;4.10;1.63;;;;;;;;;;5041227;28;20482;-70
2024/01/22 12:54:45;;;;;;;2.72;1.67;;;;;;;;;;5050532;28;20140;-69
2024/01/22 12:57:12;;;;;;;3.80;1.35;;;;;;;;;;5051018;28;20115;-69
2024/01/22 12:59:39;;;;;;;4.07;1.92;;;;;;;;;;5038187;28;20049;-69
2024/01/22 13:02:05;;;;;;;3.50;2.83;;;;;;;;;;5041809;28;20041;-69
2024/01/22 13:04:32;;;;;;;5.53;1.85;;;;;;;;;;5044009;28;20421;-68
2024/01/22 13:06:58;;;;;;;3.17;1.38;;;;;;;;;;5047448;28;20049;-69
2024/01/22 13:09:24;;;;;;;1.70;1.60;;;;;;;;;;5039954;28;20099;-69
2024/01/22 13:11:51;;;;;;;4.90;1.40;;;;;;;;;;5046411;28;20045;-69
2024/01/22 13:14:19;;;;;;;5.40;1.23;;;;;;;;;;5037049;28;20045;-71
2024/01/22 13:16:45;;;;;;;2.42;1.05;;;;;;;;;;5040853;28;20046;-71
2024/01/22 13:19:11;;;;;;;4.60;1.10;;;;;;;;;;5048623;28;20060;-70
2024/01/22 13:21:38;;;;;;;5.18;1.65;;;;;;;;;;5045070;28;20045;-69
2024/01/22 13:24:05;;;;;;;4.55;1.45;;;;;;;;;;5042474;28;20047;-69
2024/01/22 13:26:31;;;;;;;4.20;1.00;;;;;;;;;;5041487;28;20145;-70
2024/01/22 13:28:58;;;;;;;5.05;1.70;;;;;;;;;;5045439;28;20500;-69
2024/01/22 13:31:26;;;;;;;4.72;1.60;;;;;;;;;;5032922;28;20487;-69
2024/01/22 13:33:53;;;;;;;5.85;1.40;;;;;;;;;;5047927;28;20128;-69
2024/01/22 13:36:19;;;;;;;4.45;1.40;;;;;;;;;;5047179;28;20439;-69
2024/01/22 13:38:46;;;;;;;4.88;1.70;;;;;;;;;;5037526;28;20141;-68
2024/01/22 13:41:14;;;;;;;4.25;1.40;;;;;;;;;;5039172;28;20667;-69
2024/01/22 13:43:42;;;;;;;7.07;1.48;;;;;;;;;;5047852;28;20053;-69
2024/01/22 13:46:10;;;;;;;6.00;1.40;;;;;;;;;;5051179;28;20158;-69
2024/01/22 13:48:38;;;;;;;3.17;1.25;;;;;;;;;;5049769;28;20401;-70
2024/01/22 13:51:04;;;;;;;6.07;1.60;;;;;;;;;;5049866;28;20072;-71
2024/01/22 13:53:31;;;;;;;6.13;1.67;;;;;;;;;;5048328;28;20044;-68
2024/01/22 13:55:58;;;;;;;5.93;1.60;;;;;;;;;;5044536;28;20057;-68
2024/01/22 13:58:24;;;;;;;4.70;1.60;;;;;;;;;;5039708;28;20069;-69
2024/01/22 14:00:50;;;;;;;4.40;1.27;;;;;;;;;;5050002;28;20412;-69
2024/01/22 14:03:17;;;;;;;4.10;1.70;;;;;;;;;;5042998;28;20049;-69
2024/01/22 14:05:45;;;;;;;6.15;1.35;;;;;;;;;;5042308;28;20055;-68
2024/01/22 14:08:11;;;;;;;3.65;1.63;;;;;;;;;;5049799;28;20048;-68
2024/01/22 14:10:38;;;;;;;2.75;1.45;;;;;;;;;;5048437;28;20044;-68
2024/01/22 14:13:05;;;;;;;7.97;2.20;;;;;;;;;;5039015;28;20045;-68
2024/01/22 14:15:31;;;;;;;5.32;1.95;;;;;;;;;;5044269;28;20055;-68
2024/01/22 14:17:58;;;;;;;5.90;2.20;;;;;;;;;;5050468;28;20107;-68
2024/01/22 14:20:24;;;;;;;8.07;1.98;;;;;;;;;;5046746;28;20045;-69
2024/01/22 14:22:52;;;;;;;8.48;2.00;;;;;;;;;;5047797;28;20493;-67
2024/01/22 14:25:19;;;;;;;6.18;2.05;;;;;;;;;;5036553;28;20065;-67
2024/01/22 14:27:46;;;;;;;9.73;2.65;;;;;;;;;;5048067;28;20041;-68
2024/01/22 14:30:13;;;;;;;6.32;1.92;;;;;;;;;;5042730;28;20122;-68
2024/01/22 14:32:39;;;;;;;5.55;2.35;;;;;;;;;;5035479;28;20053;-70
2024/01/22 14:35:07;;;;;;;7.03;2.47;;;;;;;;;;5050118;28;20047;-68
2024/01/22 14:37:33;;;;;;;8.40;2.00;;;;;;;;;;5049819;28;20052;-68
2024/01/22 14:40:01;;;;;;;6.18;1.90;;;;;;;;;;5038212;28;20623;-68
2024/01/22 14:42:28;;;;;;;9.05;2.67;;;;;;;;;;5043276;28;20135;-69